sensor_id;sensor_type;location;lat;lon;timestamp;pressure;altitude;pressure_sealevel;temperature;humidity
42591;BME280;28218;53.342;-6.216;2022-10-31T00:01:09;100088.34;;;13.03;100.00
42591;BME280;28218;53.342;-6.216;2022-10-31T00:03:38;100083.91;;;13.03;100.00
42591;BME280;28218;53.342;-6.216;2022-10-31T00:06:06;100091.41;;;13.07;100.00
42591;BME280;28218;53.342;-6.216;2022-10-31T00:08:34;100083.91;;;13.10;100.00
42591;BME280;28218;53.342;-6.216;2022-10-31T00:11:03;100087.16;;;13.12;100.00
42591;BME280;28218;53.342;-6.216;2022-10-31T00:13:32;100087.78;;;13.14;100.00
42591;BME280;28218;53.342;-6.216;2022-10-31T00:16:01;100073.97;;;13.19;100.00
42591;BME280;28218;53.342;-6.216;2022-10-31T00:18:29;100067.03;;;13.18;100.00
42591;BME280;28218;53.342;-6.216;2022-10-31T00:21:00;100068.28;;;13.22;100.00
42591;BME280;28218;53.342;-6.216;2022-10-31T00:23:28;100081.69;;;13.20;100.00
42591;BME280;28218;53.342;-6.216;2022-10-31T00:26:00;100079.63;;;13.16;100.00
42591;BME280;28218;53.342;-6.216;2022-10-31T00:28:28;100079.44;;;13.17;100.00
42591;BME280;28218;53.342;-6.216;2022-10-31T00:31:01;100076.22;;;13.22;100.00
42591;BME280;28218;53.342;-6.216;2022-10-31T00:33:30;100069.72;;;13.24;100.00
42591;BME280;28218;53.342;-6.216;2022-10-31T00:35:58;100060.56;;;13.27;100.00
42591;BME280;28218;53.342;-6.216;2022-10-31T00:38:26;100057.94;;;13.27;100.00
42591;BME280;28218;53.342;-6.216;2022-10-31T00:40:54;100064.63;;;13.29;100.00
42591;BME280;28218;53.342;-6.216;2022-10-31T00:43:23;100057.94;;;13.27;100.00
42591;BME280;28218;53.342;-6.216;2022-10-31T00:45:51;100052.00;;;13.25;100.00
42591;BME280;28218;53.342;-6.216;2022-10-31T00:48:20;100059.94;;;13.25;100.00
42591;BME280;28218;53.342;-6.216;2022-10-31T00:50:48;100060.16;;;13.23;100.00
42591;BME280;28218;53.342;-6.216;2022-10-31T00:53:17;100061.34;;;13.21;100.00
42591;BME280;28218;53.342;-6.216;2022-10-31T00:55:45;100056.47;;;13.18;100.00
42591;BME280;28218;53.342;-6.216;2022-10-31T00:58:13;100052.78;;;13.19;100.00
42591;BME280;28218;53.342;-6.216;2022-10-31T01:00:41;100054.41;;;13.20;100.00
42591;BME280;28218;53.342;-6.216;2022-10-31T01:03:15;100057.06;;;13.20;100.00
42591;BME280;28218;53.342;-6.216;2022-10-31T01:05:44;100037.38;;;13.22;100.00
42591;BME280;28218;53.342;-6.216;2022-10-31T01:08:12;100038.19;;;13.23;100.00
42591;BME280;28218;53.342;-6.216;2022-10-31T01:10:41;100042.44;;;13.24;100.00
42591;BME280;28218;53.342;-6.216;2022-10-31T01:13:09;100039.81;;;13.24;100.00
42591;BME280;28218;53.342;-6.216;2022-10-31T01:15:37;100047.13;;;13.22;100.00
42591;BME280;28218;53.342;-6.216;2022-10-31T01:18:05;100044.47;;;13.22;100.00
42591;BME280;28218;53.342;-6.216;2022-10-31T01:20:33;100046.28;;;13.21;100.00
42591;BME280;28218;53.342;-6.216;2022-10-31T01:23:03;100045.09;;;13.24;100.00
42591;BME280;28218;53.342;-6.216;2022-10-31T01:25:31;100050.19;;;13.25;100.00
42591;BME280;28218;53.342;-6.216;2022-10-31T01:27:59;100051.00;;;13.26;100.00
42591;BME280;28218;53.342;-6.216;2022-10-31T01:30:28;100051.63;;;13.28;100.00
42591;BME280;28218;53.342;-6.216;2022-10-31T01:32:56;100041.63;;;13.30;100.00
42591;BME280;28218;53.342;-6.216;2022-10-31T01:35:25;100052.84;;;13.32;100.00
42591;BME280;28218;53.342;-6.216;2022-10-31T01:37:53;100053.25;;;13.29;100.00
42591;BME280;28218;53.342;-6.216;2022-10-31T01:40:23;100052.63;;;13.27;100.00
42591;BME280;28218;53.342;-6.216;2022-10-31T01:42:52;100056.50;;;13.24;100.00
42591;BME280;28218;53.342;-6.216;2022-10-31T01:45:20;100046.94;;;13.23;100.00
42591;BME280;28218;53.342;-6.216;2022-10-31T01:47:48;100046.94;;;13.23;100.00
42591;BME280;28218;53.342;-6.216;2022-10-31T01:50:26;100033.69;;;13.23;100.00
42591;BME280;28218;53.342;-6.216;2022-10-31T01:52:57;100042.44;;;13.24;100.00
42591;BME280;28218;53.342;-6.216;2022-10-31T01:55:30;100044.06;;;13.25;100.00
42591;BME280;28218;53.342;-6.216;2022-10-31T01:58:04;100045.91;;;13.24;100.00
42591;BME280;28218;53.342;-6.216;2022-10-31T02:00:34;100048.75;;;13.23;100.00
42591;BME280;28218;53.342;-6.216;2022-10-31T02:03:03;100053.25;;;13.22;100.00
42591;BME280;28218;53.342;-6.216;2022-10-31T02:05:31;100035.69;;;13.21;100.00
42591;BME280;28218;53.342;-6.216;2022-10-31T02:08:03;100029.44;;;13.22;100.00
42591;BME280;28218;53.342;-6.216;2022-10-31T02:10:35;100025.75;;;13.23;100.00
42591;BME280;28218;53.342;-6.216;2022-10-31T02:13:04;100030.84;;;13.25;100.00
42591;BME280;28218;53.342;-6.216;2022-10-31T02:15:35;100035.31;;;13.24;100.00
42591;BME280;28218;53.342;-6.216;2022-10-31T02:18:04;100036.94;;;13.25;100.00
42591;BME280;28218;53.342;-6.216;2022-10-31T02:20:40;100038.38;;;13.28;100.00
42591;BME280;28218;53.342;-6.216;2022-10-31T02:26:41;100037.56;;;13.27;100.00
42591;BME280;28218;53.342;-6.216;2022-10-31T02:32:26;100017.00;;;13.29;100.00
42591;BME280;28218;53.342;-6.216;2022-10-31T02:34:58;100016.59;;;13.26;100.00
42591;BME280;28218;53.342;-6.216;2022-10-31T02:37:36;100015.59;;;13.27;100.00
42591;BME280;28218;53.342;-6.216;2022-10-31T02:40:13;100012.13;;;13.26;100.00
42591;BME280;28218;53.342;-6.216;2022-10-31T02:42:47;100014.16;;;13.24;100.00
42591;BME280;28218;53.342;-6.216;2022-10-31T02:45:24;100009.69;;;13.25;100.00
42591;BME280;28218;53.342;-6.216;2022-10-31T02:47:59;100006.22;;;13.24;100.00
42591;BME280;28218;53.342;-6.216;2022-10-31T02:50:32;99988.53;;;13.25;100.00
42591;BME280;28218;53.342;-6.216;2022-10-31T02:53:02;100005.41;;;13.24;100.00
42591;BME280;28218;53.342;-6.216;2022-10-31T02:55:51;99993.81;;;13.25;100.00
42591;BME280;28218;53.342;-6.216;2022-10-31T02:58:24;100001.75;;;13.25;100.00
42591;BME280;28218;53.342;-6.216;2022-10-31T03:03:57;99983.22;;;13.25;100.00
42591;BME280;28218;53.342;-6.216;2022-10-31T03:06:33;99965.53;;;13.25;100.00
42591;BME280;28218;53.342;-6.216;2022-10-31T03:09:08;99977.34;;;13.23;100.00
42591;BME280;28218;53.342;-6.216;2022-10-31T03:11:44;99967.34;;;13.25;100.00
42591;BME280;28218;53.342;-6.216;2022-10-31T03:14:20;99973.47;;;13.25;100.00
42591;BME280;28218;53.342;-6.216;2022-10-31T03:16:50;99970.00;;;13.25;100.00
42591;BME280;28218;53.342;-6.216;2022-10-31T03:19:24;99966.97;;;13.28;100.00
42591;BME280;28218;53.342;-6.216;2022-10-31T03:21:57;99969.38;;;13.29;100.00
42591;BME280;28218;53.342;-6.216;2022-10-31T03:24:37;99975.50;;;13.30;100.00
42591;BME280;28218;53.342;-6.216;2022-10-31T03:27:08;99966.13;;;13.34;100.00
42591;BME280;28218;53.342;-6.216;2022-10-31T03:29:39;99975.91;;;13.34;100.00
42591;BME280;28218;53.342;-6.216;2022-10-31T03:32:12;99973.47;;;13.32;100.00
42591;BME280;28218;53.342;-6.216;2022-10-31T03:34:45;99968.19;;;13.32;100.00
42591;BME280;28218;53.342;-6.216;2022-10-31T03:37:17;99967.56;;;13.30;100.00
42591;BME280;28218;53.342;-6.216;2022-10-31T03:39:47;99963.28;;;13.29;100.00
42591;BME280;28218;53.342;-6.216;2022-10-31T03:42:20;99966.53;;;13.31;100.00
42591;BME280;28218;53.342;-6.216;2022-10-31T03:44:53;99955.94;;;13.31;100.00
42591;BME280;28218;53.342;-6.216;2022-10-31T03:47:24;99968.56;;;13.29;100.00
42591;BME280;28218;53.342;-6.216;2022-10-31T03:49:54;99961.66;;;13.28;100.00
42591;BME280;28218;53.342;-6.216;2022-10-31T03:52:26;99960.84;;;13.27;100.00
42591;BME280;28218;53.342;-6.216;2022-10-31T03:54:58;99961.44;;;13.29;100.00
42591;BME280;28218;53.342;-6.216;2022-10-31T03:57:32;99960.63;;;13.29;100.00
42591;BME280;28218;53.342;-6.216;2022-10-31T04:00:05;99962.47;;;13.28;100.00
42591;BME280;28218;53.342;-6.216;2022-10-31T04:02:38;99962.25;;;13.30;100.00
42591;BME280;28218;53.342;-6.216;2022-10-31T04:05:10;99962.25;;;13.30;100.00
42591;BME280;28218;53.342;-6.216;2022-10-31T04:07:42;99953.94;;;13.33;100.00
42591;BME280;28218;53.342;-6.216;2022-10-31T04:10:14;99957.16;;;13.35;100.00
42591;BME280;28218;53.342;-6.216;2022-10-31T04:12:48;99951.06;;;13.35;100.00
42591;BME280;28218;53.342;-6.216;2022-10-31T04:15:18;99946.59;;;13.35;100.00
42591;BME280;28218;53.342;-6.216;2022-10-31T04:17:48;99937.66;;;13.36;100.00
42591;BME280;28218;53.342;-6.216;2022-10-31T04:20:29;99943.34;;;13.33;100.00
42591;BME280;28218;53.342;-6.216;2022-10-31T04:22:58;99937.44;;;13.31;100.00
42591;BME280;28218;53.342;-6.216;2022-10-31T04:25:27;99938.44;;;13.30;100.00
42591;BME280;28218;53.342;-6.216;2022-10-31T04:27:55;99959.44;;;13.32;100.00
42591;BME280;28218;53.342;-6.216;2022-10-31T04:30:24;99940.69;;;13.33;100.00
42591;BME280;28218;53.342;-6.216;2022-10-31T04:32:52;99943.34;;;13.33;100.00
42591;BME280;28218;53.342;-6.216;2022-10-31T04:35:21;99928.69;;;13.37;100.00
42591;BME280;28218;53.342;-6.216;2022-10-31T04:37:50;99927.66;;;13.38;100.00
42591;BME280;28218;53.342;-6.216;2022-10-31T04:40:18;99930.31;;;13.38;100.00
42591;BME280;28218;53.342;-6.216;2022-10-31T04:42:46;99936.63;;;13.37;100.00
42591;BME280;28218;53.342;-6.216;2022-10-31T04:45:14;99922.59;;;13.37;100.00
42591;BME280;28218;53.342;-6.216;2022-10-31T04:47:47;99925.41;;;13.35;100.00
42591;BME280;28218;53.342;-6.216;2022-10-31T04:50:15;99924.22;;;13.38;100.00
42591;BME280;28218;53.342;-6.216;2022-10-31T04:52:45;99914.66;;;13.37;100.00
42591;BME280;28218;53.342;-6.216;2022-10-31T04:55:14;99906.50;;;13.38;100.00
42591;BME280;28218;53.342;-6.216;2022-10-31T04:57:43;99904.25;;;13.35;100.00
42591;BME280;28218;53.342;-6.216;2022-10-31T05:00:13;99906.09;;;13.35;100.00
42591;BME280;28218;53.342;-6.216;2022-10-31T05:02:43;99907.13;;;13.34;100.00
42591;BME280;28218;53.342;-6.216;2022-10-31T05:05:12;99908.94;;;13.33;100.00
42591;BME280;28218;53.342;-6.216;2022-10-31T05:07:41;99898.16;;;13.35;100.00
42591;BME280;28218;53.342;-6.216;2022-10-31T05:10:13;99895.50;;;13.35;100.00
42591;BME280;28218;53.342;-6.216;2022-10-31T05:12:45;99898.78;;;13.37;100.00
42591;BME280;28218;53.342;-6.216;2022-10-31T05:15:15;99904.66;;;13.39;100.00
42591;BME280;28218;53.342;-6.216;2022-10-31T05:17:43;99909.56;;;13.42;100.00
42591;BME280;28218;53.342;-6.216;2022-10-31T05:20:13;99913.59;;;13.44;100.00
42591;BME280;28218;53.342;-6.216;2022-10-31T05:22:42;99911.56;;;13.46;100.00
42591;BME280;28218;53.342;-6.216;2022-10-31T05:25:13;99902.63;;;13.47;100.00
42591;BME280;28218;53.342;-6.216;2022-10-31T05:27:42;99905.03;;;13.49;100.00
42591;BME280;28218;53.342;-6.216;2022-10-31T05:30:13;99911.78;;;13.51;100.00
42591;BME280;28218;53.342;-6.216;2022-10-31T05:32:43;99896.47;;;13.53;100.00
42591;BME280;28218;53.342;-6.216;2022-10-31T05:35:13;99897.28;;;13.54;100.00
42591;BME280;28218;53.342;-6.216;2022-10-31T05:37:42;99897.09;;;13.55;100.00
42591;BME280;28218;53.342;-6.216;2022-10-31T05:40:13;99881.81;;;13.58;100.00
42591;BME280;28218;53.342;-6.216;2022-10-31T05:42:42;99878.94;;;13.59;100.00
42591;BME280;28218;53.342;-6.216;2022-10-31T05:45:13;99876.13;;;13.61;100.00
42591;BME280;28218;53.342;-6.216;2022-10-31T05:47:41;99876.13;;;13.61;100.00
42591;BME280;28218;53.342;-6.216;2022-10-31T05:50:10;99875.31;;;13.60;100.00
42591;BME280;28218;53.342;-6.216;2022-10-31T05:52:38;99878.13;;;13.59;100.00
42591;BME280;28218;53.342;-6.216;2022-10-31T05:55:07;99876.53;;;13.58;100.00
42591;BME280;28218;53.342;-6.216;2022-10-31T05:57:36;99886.09;;;13.59;100.00
42591;BME280;28218;53.342;-6.216;2022-10-31T06:00:05;99889.34;;;13.61;100.00
42591;BME280;28218;53.342;-6.216;2022-10-31T06:02:34;99889.31;;;13.67;100.00
42591;BME280;28218;53.342;-6.216;2022-10-31T06:05:02;99881.38;;;13.67;100.00
42591;BME280;28218;53.342;-6.216;2022-10-31T06:07:34;99882.19;;;13.68;100.00
42591;BME280;28218;53.342;-6.216;2022-10-31T06:10:04;99876.31;;;13.66;100.00
42591;BME280;28218;53.342;-6.216;2022-10-31T06:12:33;99885.47;;;13.63;100.00
42591;BME280;28218;53.342;-6.216;2022-10-31T06:15:07;99876.50;;;13.64;100.00
42591;BME280;28218;53.342;-6.216;2022-10-31T06:17:36;99879.34;;;13.63;100.00
42591;BME280;28218;53.342;-6.216;2022-10-31T06:20:05;99871.41;;;13.63;100.00
42591;BME280;28218;53.342;-6.216;2022-10-31T06:22:34;99870.59;;;13.62;100.00
42591;BME280;28218;53.342;-6.216;2022-10-31T06:25:02;99874.06;;;13.63;100.00
42591;BME280;28218;53.342;-6.216;2022-10-31T06:27:31;99873.03;;;13.64;100.00
42591;BME280;28218;53.342;-6.216;2022-10-31T06:29:59;99869.56;;;13.63;100.00
42591;BME280;28218;53.342;-6.216;2022-10-31T06:32:28;99869.38;;;13.65;100.00
42591;BME280;28218;53.342;-6.216;2022-10-31T06:34:56;99863.06;;;13.66;100.00
42591;BME280;28218;53.342;-6.216;2022-10-31T06:37:25;99877.13;;;13.66;100.00
42591;BME280;28218;53.342;-6.216;2022-10-31T06:39:53;99875.69;;;13.64;100.00
42591;BME280;28218;53.342;-6.216;2022-10-31T06:42:21;99873.84;;;13.64;100.00
42591;BME280;28218;53.342;-6.216;2022-10-31T06:44:49;99870.38;;;13.64;100.00
42591;BME280;28218;53.342;-6.216;2022-10-31T06:47:17;99874.69;;;13.65;100.00
42591;BME280;28218;53.342;-6.216;2022-10-31T06:49:47;99866.75;;;13.65;100.00
42591;BME280;28218;53.342;-6.216;2022-10-31T06:52:15;99869.38;;;13.65;100.00
42591;BME280;28218;53.342;-6.216;2022-10-31T06:54:43;99865.09;;;13.64;100.00
42591;BME280;28218;53.342;-6.216;2022-10-31T06:57:12;99861.44;;;13.65;100.00
42591;BME280;28218;53.342;-6.216;2022-10-31T06:59:40;99863.88;;;13.66;100.00
42591;BME280;28218;53.342;-6.216;2022-10-31T07:02:09;99873.22;;;13.69;100.00
42591;BME280;28218;53.342;-6.216;2022-10-31T07:04:37;99871.59;;;13.68;100.00
42591;BME280;28218;53.342;-6.216;2022-10-31T07:07:07;99870.56;;;13.69;100.00
42591;BME280;28218;53.342;-6.216;2022-10-31T07:09:35;99878.09;;;13.72;100.00
42591;BME280;28218;53.342;-6.216;2022-10-31T07:12:03;99885.03;;;13.73;100.00
42591;BME280;28218;53.342;-6.216;2022-10-31T07:14:32;99885.66;;;13.75;100.00
42591;BME280;28218;53.342;-6.216;2022-10-31T07:17:00;99881.16;;;13.75;100.00
42591;BME280;28218;53.342;-6.216;2022-10-31T07:19:28;99890.72;;;13.76;100.00
42591;BME280;28218;53.342;-6.216;2022-10-31T07:21:56;99884.22;;;13.79;100.00
42591;BME280;28218;53.342;-6.216;2022-10-31T07:24:26;99879.72;;;13.79;100.00
42591;BME280;28218;53.342;-6.216;2022-10-31T07:26:54;99878.09;;;13.78;100.00
42591;BME280;28218;53.342;-6.216;2022-10-31T07:29:22;99873.63;;;13.79;100.00
42591;BME280;28218;53.342;-6.216;2022-10-31T07:31:51;99875.44;;;13.78;100.00
42591;BME280;28218;53.342;-6.216;2022-10-31T07:34:19;99872.16;;;13.83;100.00
42591;BME280;28218;53.342;-6.216;2022-10-31T07:36:48;99877.66;;;13.81;100.00
42591;BME280;28218;53.342;-6.216;2022-10-31T07:39:18;99881.94;;;13.82;100.00
42591;BME280;28218;53.342;-6.216;2022-10-31T07:41:48;99882.75;;;13.83;100.00
42591;BME280;28218;53.342;-6.216;2022-10-31T07:44:16;99876.22;;;13.86;100.00
42591;BME280;28218;53.342;-6.216;2022-10-31T07:46:44;99880.31;;;13.88;100.00
42591;BME280;28218;53.342;-6.216;2022-10-31T07:49:12;99881.47;;;13.92;100.00
42591;BME280;28218;53.342;-6.216;2022-10-31T07:51:40;99880.25;;;13.95;100.00
42591;BME280;28218;53.342;-6.216;2022-10-31T07:54:12;99884.75;;;13.94;100.00
42591;BME280;28218;53.342;-6.216;2022-10-31T07:56:40;99885.34;;;13.96;100.00
42591;BME280;28218;53.342;-6.216;2022-10-31T07:59:10;99892.28;;;13.97;100.00
42591;BME280;28218;53.342;-6.216;2022-10-31T08:01:38;99886.53;;;14.00;100.00
42591;BME280;28218;53.342;-6.216;2022-10-31T08:04:06;99893.69;;;14.00;100.00
42591;BME280;28218;53.342;-6.216;2022-10-31T08:06:34;99893.47;;;14.01;100.00
42591;BME280;28218;53.342;-6.216;2022-10-31T08:09:03;99898.75;;;14.01;100.00
42591;BME280;28218;53.342;-6.216;2022-10-31T08:11:31;99903.06;;;14.02;100.00
42591;BME280;28218;53.342;-6.216;2022-10-31T08:13:59;99910.78;;;14.04;100.00
42591;BME280;28218;53.342;-6.216;2022-10-31T08:16:28;99909.75;;;14.05;100.00
42591;BME280;28218;53.342;-6.216;2022-10-31T08:18:57;99909.75;;;14.05;100.00
42591;BME280;28218;53.342;-6.216;2022-10-31T08:21:25;99920.75;;;14.09;100.00
42591;BME280;28218;53.342;-6.216;2022-10-31T08:23:53;99912.59;;;14.10;100.00
42591;BME280;28218;53.342;-6.216;2022-10-31T08:26:21;99921.16;;;14.12;100.00
42591;BME280;28218;53.342;-6.216;2022-10-31T08:28:49;99918.28;;;14.14;100.00
42591;BME280;28218;53.342;-6.216;2022-10-31T08:31:22;99922.34;;;14.16;100.00
42591;BME280;28218;53.342;-6.216;2022-10-31T08:34:01;99909.06;;;14.23;100.00
42591;BME280;28218;53.342;-6.216;2022-10-31T08:36:29;99910.69;;;14.24;100.00
42591;BME280;28218;53.342;-6.216;2022-10-31T08:38:57;99916.38;;;14.27;100.00
42591;BME280;28218;53.342;-6.216;2022-10-31T08:41:27;99917.59;;;14.31;100.00
42591;BME280;28218;53.342;-6.216;2022-10-31T08:43:56;99922.66;;;14.33;100.00
42591;BME280;28218;53.342;-6.216;2022-10-31T08:46:24;99906.13;;;14.38;100.00
42591;BME280;28218;53.342;-6.216;2022-10-31T08:48:52;99918.16;;;14.40;100.00
42591;BME280;28218;53.342;-6.216;2022-10-31T08:51:22;99923.81;;;14.44;100.00
42591;BME280;28218;53.342;-6.216;2022-10-31T08:53:50;99918.09;;;14.47;100.00
42591;BME280;28218;53.342;-6.216;2022-10-31T08:56:18;99920.16;;;14.51;100.00
42591;BME280;28218;53.342;-6.216;2022-10-31T08:58:47;99934.63;;;14.55;100.00
42591;BME280;28218;53.342;-6.216;2022-10-31T09:01:15;99936.84;;;14.59;100.00
42591;BME280;28218;53.342;-6.216;2022-10-31T09:03:43;99936.00;;;14.65;100.00
42591;BME280;28218;53.342;-6.216;2022-10-31T09:06:11;99943.50;;;14.68;100.00
42591;BME280;28218;53.342;-6.216;2022-10-31T09:08:41;99951.44;;;14.68;100.00
42591;BME280;28218;53.342;-6.216;2022-10-31T09:11:09;99950.22;;;14.70;100.00
42591;BME280;28218;53.342;-6.216;2022-10-31T09:13:37;99963.47;;;14.70;100.00
42591;BME280;28218;53.342;-6.216;2022-10-31T09:16:07;99967.97;;;14.70;100.00
42591;BME280;28218;53.342;-6.216;2022-10-31T09:18:35;99973.69;;;14.67;100.00
42591;BME280;28218;53.342;-6.216;2022-10-31T09:21:04;99969.41;;;14.66;100.00
42591;BME280;28218;53.342;-6.216;2022-10-31T09:23:32;99977.59;;;14.64;100.00
42591;BME280;28218;53.342;-6.216;2022-10-31T09:26:01;99974.94;;;14.64;100.00
42591;BME280;28218;53.342;-6.216;2022-10-31T09:28:30;99978.59;;;14.63;100.00
42591;BME280;28218;53.342;-6.216;2022-10-31T09:30:59;99974.56;;;14.61;100.00
42591;BME280;28218;53.342;-6.216;2022-10-31T09:33:27;99968.66;;;14.59;100.00
42591;BME280;28218;53.342;-6.216;2022-10-31T09:35:57;99968.66;;;14.59;100.00
42591;BME280;28218;53.342;-6.216;2022-10-31T09:38:26;99957.66;;;14.55;100.00
42591;BME280;28218;53.342;-6.216;2022-10-31T09:41:04;99967.22;;;14.56;100.00
42591;BME280;28218;53.342;-6.216;2022-10-31T09:43:43;99966.66;;;14.54;100.00
42591;BME280;28218;53.342;-6.216;2022-10-31T09:46:23;99967.47;;;14.54;100.00
42591;BME280;28218;53.342;-6.216;2022-10-31T09:51:47;99959.06;;;14.57;100.00
42591;BME280;28218;53.342;-6.216;2022-10-31T09:54:21;99953.16;;;14.55;100.00
42591;BME280;28218;53.342;-6.216;2022-10-31T09:56:57;99945.81;;;14.57;100.00
42591;BME280;28218;53.342;-6.216;2022-10-31T09:59:30;99947.81;;;14.62;100.00
42591;BME280;28218;53.342;-6.216;2022-10-31T10:02:03;99937.19;;;14.69;100.00
42591;BME280;28218;53.342;-6.216;2022-10-31T10:04:40;99944.28;;;14.75;100.00
42591;BME280;28218;53.342;-6.216;2022-10-31T10:07:16;99938.34;;;14.79;100.00
42591;BME280;28218;53.342;-6.216;2022-10-31T10:09:47;99938.72;;;14.83;100.00
42591;BME280;28218;53.342;-6.216;2022-10-31T10:12:24;99932.97;;;14.86;100.00
42591;BME280;28218;53.342;-6.216;2022-10-31T10:17:57;99927.63;;;14.93;100.00
42591;BME280;28218;53.342;-6.216;2022-10-31T10:20:33;99932.06;;;14.99;100.00
42591;BME280;28218;53.342;-6.216;2022-10-31T10:23:19;99930.38;;;15.04;100.00
42591;BME280;28218;53.342;-6.216;2022-10-31T10:25:55;99935.03;;;15.09;100.00
42591;BME280;28218;53.342;-6.216;2022-10-31T10:28:33;99925.03;;;15.11;100.00
42591;BME280;28218;53.342;-6.216;2022-10-31T10:31:08;99930.28;;;15.18;100.00
42591;BME280;28218;53.342;-6.216;2022-10-31T10:33:40;99926.59;;;15.19;100.00
42591;BME280;28218;53.342;-6.216;2022-10-31T10:36:14;99934.13;;;15.22;100.00
42591;BME280;28218;53.342;-6.216;2022-10-31T10:38:51;99945.72;;;15.27;100.00
42591;BME280;28218;53.342;-6.216;2022-10-31T10:41:23;99926.84;;;15.36;100.00
42591;BME280;28218;53.342;-6.216;2022-10-31T10:43:59;99938.22;;;15.43;100.00
42591;BME280;28218;53.342;-6.216;2022-10-31T10:46:34;99942.66;;;15.49;100.00
42591;BME280;28218;53.342;-6.216;2022-10-31T10:49:28;99956.91;;;15.54;100.00
42591;BME280;28218;53.342;-6.216;2022-10-31T10:51:59;99954.97;;;15.62;100.00
42591;BME280;28218;53.342;-6.216;2022-10-31T10:54:54;99943.69;;;15.73;100.00
42591;BME280;28218;53.342;-6.216;2022-10-31T10:57:36;99945.00;;;15.82;100.00
42591;BME280;28218;53.342;-6.216;2022-10-31T11:00:18;99941.22;;;15.90;100.00
42591;BME280;28218;53.342;-6.216;2022-10-31T11:02:47;99939.09;;;15.98;100.00
42591;BME280;28218;53.342;-6.216;2022-10-31T11:05:23;99942.50;;;16.05;100.00
42591;BME280;28218;53.342;-6.216;2022-10-31T11:07:52;99939.44;;;16.20;100.00
42591;BME280;28218;53.342;-6.216;2022-10-31T11:10:21;99942.16;;;16.32;100.00
42591;BME280;28218;53.342;-6.216;2022-10-31T11:13:06;99933.78;;;16.47;100.00
42591;BME280;28218;53.342;-6.216;2022-10-31T11:15:39;99937.28;;;16.59;100.00
42591;BME280;28218;53.342;-6.216;2022-10-31T11:18:20;99927.81;;;16.63;100.00
42591;BME280;28218;53.342;-6.216;2022-10-31T11:20:52;99928.63;;;16.64;100.00
42591;BME280;28218;53.342;-6.216;2022-10-31T11:23:22;99943.78;;;16.63;100.00
42591;BME280;28218;53.342;-6.216;2022-10-31T11:25:54;99943.69;;;16.70;100.00
42591;BME280;28218;53.342;-6.216;2022-10-31T11:28:22;99933.91;;;16.82;100.00
42591;BME280;28218;53.342;-6.216;2022-10-31T11:30:54;99938.69;;;16.92;100.00
42591;BME280;28218;53.342;-6.216;2022-10-31T11:33:27;99943.31;;;16.96;100.00
42591;BME280;28218;53.342;-6.216;2022-10-31T11:35:57;99945.75;;;16.98;100.00
42591;BME280;28218;53.342;-6.216;2022-10-31T11:38:31;99948.28;;;16.93;100.00
42591;BME280;28218;53.342;-6.216;2022-10-31T11:41:07;99947.09;;;16.89;100.00
42591;BME280;28218;53.342;-6.216;2022-10-31T11:43:39;99951.19;;;16.91;100.00
42591;BME280;28218;53.342;-6.216;2022-10-31T11:46:19;99946.66;;;16.92;100.00
42591;BME280;28218;53.342;-6.216;2022-10-31T11:48:51;99955.44;;;16.92;100.00
42591;BME280;28218;53.342;-6.216;2022-10-31T11:51:21;99947.72;;;16.91;100.00
42591;BME280;28218;53.342;-6.216;2022-10-31T11:53:52;99940.28;;;16.81;100.00
42591;BME280;28218;53.342;-6.216;2022-10-31T11:56:27;99943.25;;;16.73;100.00
42591;BME280;28218;53.342;-6.216;2022-10-31T11:59:05;99939.28;;;16.64;100.00
42591;BME280;28218;53.342;-6.216;2022-10-31T12:01:49;99940.63;;;16.54;100.00
42591;BME280;28218;53.342;-6.216;2022-10-31T12:04:18;99933.56;;;16.48;100.00
42591;BME280;28218;53.342;-6.216;2022-10-31T12:06:52;99942.59;;;16.47;100.00
42591;BME280;28218;53.342;-6.216;2022-10-31T12:09:23;99939.56;;;16.44;100.00
42591;BME280;28218;53.342;-6.216;2022-10-31T12:12:04;99923.69;;;16.37;100.00
42591;BME280;28218;53.342;-6.216;2022-10-31T12:14:41;99918.03;;;16.33;100.00
42591;BME280;28218;53.342;-6.216;2022-10-31T12:17:14;99913.50;;;16.34;100.00
42591;BME280;28218;53.342;-6.216;2022-10-31T12:19:54;99918.47;;;16.30;100.00
42591;BME280;28218;53.342;-6.216;2022-10-31T12:22:33;99911.06;;;16.32;100.00
42591;BME280;28218;53.342;-6.216;2022-10-31T12:25:17;99891.44;;;16.33;100.00
42591;BME280;28218;53.342;-6.216;2022-10-31T12:28:00;99880.00;;;16.33;100.00
42591;BME280;28218;53.342;-6.216;2022-10-31T12:30:40;99886.66;;;16.24;100.00
42591;BME280;28218;53.342;-6.216;2022-10-31T12:33:26;99875.16;;;16.12;100.00
42591;BME280;28218;53.342;-6.216;2022-10-31T12:36:08;99877.25;;;16.09;100.00
42591;BME280;28218;53.342;-6.216;2022-10-31T12:39:00;99892.69;;;16.01;100.00
42591;BME280;28218;53.342;-6.216;2022-10-31T12:41:44;99897.63;;;15.97;100.00
42591;BME280;28218;53.342;-6.216;2022-10-31T12:47:20;99883.53;;;15.97;100.00
42591;BME280;28218;53.342;-6.216;2022-10-31T12:50:05;99886.84;;;15.92;100.00
42591;BME280;28218;53.342;-6.216;2022-10-31T12:52:47;99895.72;;;15.86;100.00
42591;BME280;28218;53.342;-6.216;2022-10-31T12:55:37;99884.34;;;15.79;100.00
42591;BME280;28218;53.342;-6.216;2022-10-31T12:58:13;99872.53;;;15.75;100.00
42591;BME280;28218;53.342;-6.216;2022-10-31T13:00:46;99876.81;;;15.76;100.00
42591;BME280;28218;53.342;-6.216;2022-10-31T13:03:25;99882.78;;;15.71;100.00
42591;BME280;28218;53.342;-6.216;2022-10-31T13:06:01;99884.06;;;15.69;100.00
42591;BME280;28218;53.342;-6.216;2022-10-31T13:08:36;99888.81;;;15.67;100.00
42591;BME280;28218;53.342;-6.216;2022-10-31T13:11:11;99875.31;;;15.62;100.00
42591;BME280;28218;53.342;-6.216;2022-10-31T13:13:44;99875.78;;;15.58;100.00
42591;BME280;28218;53.342;-6.216;2022-10-31T13:16:16;99872.16;;;15.53;100.00
42591;BME280;28218;53.342;-6.216;2022-10-31T13:18:50;99869.13;;;15.49;100.00